sensor_id;sensor_type;location;lat;lon;timestamp;temperature;humidity
24226;DHT22;51462;51.422;5.514;2023-09-18T00:01:48;20.40;99.90
24226;DHT22;51462;51.422;5.514;2023-09-18T00:04:13;20.30;99.90
24226;DHT22;51462;51.422;5.514;2023-09-18T00:06:39;20.30;99.90
24226;DHT22;51462;51.422;5.514;2023-09-18T00:09:05;20.40;99.90
24226;DHT22;51462;51.422;5.514;2023-09-18T00:11:32;20.40;99.90
24226;DHT22;51462;51.422;5.514;2023-09-18T00:13:57;20.40;99.90
24226;DHT22;51462;51.422;5.514;2023-09-18T00:16:23;20.30;99.90
24226;DHT22;51462;51.422;5.514;2023-09-18T00:18:52;20.30;99.90
24226;DHT22;51462;51.422;5.514;2023-09-18T00:21:18;20.20;99.90
24226;DHT22;51462;51.422;5.514;2023-09-18T00:23:43;20.30;99.90
24226;DHT22;51462;51.422;5.514;2023-09-18T00:26:09;20.30;99.90
24226;DHT22;51462;51.422;5.514;2023-09-18T00:28:34;20.30;99.90
24226;DHT22;51462;51.422;5.514;2023-09-18T00:31:00;20.30;99.90
24226;DHT22;51462;51.422;5.514;2023-09-18T00:33:26;20.30;99.90
24226;DHT22;51462;51.422;5.514;2023-09-18T00:35:52;20.30;99.90
24226;DHT22;51462;51.422;5.514;2023-09-18T00:38:18;20.40;99.90
24226;DHT22;51462;51.422;5.514;2023-09-18T00:40:44;20.40;99.90
24226;DHT22;51462;51.422;5.514;2023-09-18T00:43:10;20.40;99.90
24226;DHT22;51462;51.422;5.514;2023-09-18T00:45:40;20.40;99.90
24226;DHT22;51462;51.422;5.514;2023-09-18T00:48:07;20.40;99.90
24226;DHT22;51462;51.422;5.514;2023-09-18T00:50:33;20.30;99.90
24226;DHT22;51462;51.422;5.514;2023-09-18T00:52:59;20.30;99.90
24226;DHT22;51462;51.422;5.514;2023-09-18T00:55:27;20.30;99.90
24226;DHT22;51462;51.422;5.514;2023-09-18T00:57:55;20.30;99.90
24226;DHT22;51462;51.422;5.514;2023-09-18T01:00:21;20.30;99.90
24226;DHT22;51462;51.422;5.514;2023-09-18T01:02:47;20.30;99.90
24226;DHT22;51462;51.422;5.514;2023-09-18T01:05:13;20.30;99.90
24226;DHT22;51462;51.422;5.514;2023-09-18T01:07:42;20.30;99.90
24226;DHT22;51462;51.422;5.514;2023-09-18T01:10:08;20.30;99.90
24226;DHT22;51462;51.422;5.514;2023-09-18T01:15:33;20.30;99.90
24226;DHT22;51462;51.422;5.514;2023-09-18T01:18:00;20.30;99.90
24226;DHT22;51462;51.422;5.514;2023-09-18T01:20:26;20.30;99.90
24226;DHT22;51462;51.422;5.514;2023-09-18T01:22:53;20.40;99.90
24226;DHT22;51462;51.422;5.514;2023-09-18T01:25:18;20.30;99.90
24226;DHT22;51462;51.422;5.514;2023-09-18T01:27:44;20.30;99.90
24226;DHT22;51462;51.422;5.514;2023-09-18T01:30:10;20.30;99.90
24226;DHT22;51462;51.422;5.514;2023-09-18T01:32:36;20.30;99.90
24226;DHT22;51462;51.422;5.514;2023-09-18T01:35:05;20.30;99.90
24226;DHT22;51462;51.422;5.514;2023-09-18T01:37:33;20.30;99.90
24226;DHT22;51462;51.422;5.514;2023-09-18T01:40:01;20.30;99.90
24226;DHT22;51462;51.422;5.514;2023-09-18T01:42:29;20.20;99.90
24226;DHT22;51462;51.422;5.514;2023-09-18T01:44:55;20.20;99.90
24226;DHT22;51462;51.422;5.514;2023-09-18T01:47:21;20.20;99.90
24226;DHT22;51462;51.422;5.514;2023-09-18T01:49:49;20.30;99.90
24226;DHT22;51462;51.422;5.514;2023-09-18T01:52:15;20.30;99.90
24226;DHT22;51462;51.422;5.514;2023-09-18T01:54:40;20.20;99.90
24226;DHT22;51462;51.422;5.514;2023-09-18T01:57:06;20.20;99.90
24226;DHT22;51462;51.422;5.514;2023-09-18T01:59:33;20.20;99.90
24226;DHT22;51462;51.422;5.514;2023-09-18T02:01:59;20.20;99.90
24226;DHT22;51462;51.422;5.514;2023-09-18T02:04:25;20.20;99.90
24226;DHT22;51462;51.422;5.514;2023-09-18T02:06:51;20.10;99.90
24226;DHT22;51462;51.422;5.514;2023-09-18T02:09:18;20.10;99.90
24226;DHT22;51462;51.422;5.514;2023-09-18T02:11:46;20.10;99.90
24226;DHT22;51462;51.422;5.514;2023-09-18T02:14:12;20.10;99.90
24226;DHT22;51462;51.422;5.514;2023-09-18T02:16:40;20.10;99.90
24226;DHT22;51462;51.422;5.514;2023-09-18T02:19:07;20.10;99.90
24226;DHT22;51462;51.422;5.514;2023-09-18T02:21:34;20.00;99.90
24226;DHT22;51462;51.422;5.514;2023-09-18T02:24:00;20.00;99.90
24226;DHT22;51462;51.422;5.514;2023-09-18T02:26:25;20.00;99.90
24226;DHT22;51462;51.422;5.514;2023-09-18T02:28:52;20.00;99.90
24226;DHT22;51462;51.422;5.514;2023-09-18T02:31:19;20.00;99.90
24226;DHT22;51462;51.422;5.514;2023-09-18T02:33:44;19.90;99.90
24226;DHT22;51462;51.422;5.514;2023-09-18T02:36:10;19.90;99.90
24226;DHT22;51462;51.422;5.514;2023-09-18T02:38:36;19.90;99.90
24226;DHT22;51462;51.422;5.514;2023-09-18T02:41:02;19.80;99.90
24226;DHT22;51462;51.422;5.514;2023-09-18T02:43:27;19.80;99.90
24226;DHT22;51462;51.422;5.514;2023-09-18T02:45:53;19.90;99.90
24226;DHT22;51462;51.422;5.514;2023-09-18T02:48:18;19.90;99.90
24226;DHT22;51462;51.422;5.514;2023-09-18T02:50:45;20.00;99.90
24226;DHT22;51462;51.422;5.514;2023-09-18T02:53:21;20.10;99.90
24226;DHT22;51462;51.422;5.514;2023-09-18T02:55:53;20.10;99.90
24226;DHT22;51462;51.422;5.514;2023-09-18T02:58:19;20.00;99.90
24226;DHT22;51462;51.422;5.514;2023-09-18T03:00:47;20.00;99.90
24226;DHT22;51462;51.422;5.514;2023-09-18T03:03:14;20.00;99.90
24226;DHT22;51462;51.422;5.514;2023-09-18T03:05:40;20.00;99.90
24226;DHT22;51462;51.422;5.514;2023-09-18T03:08:07;19.90;99.90
24226;DHT22;51462;51.422;5.514;2023-09-18T03:10:34;19.80;99.90
24226;DHT22;51462;51.422;5.514;2023-09-18T03:13:00;19.80;99.90
24226;DHT22;51462;51.422;5.514;2023-09-18T03:15:26;19.80;99.90
24226;DHT22;51462;51.422;5.514;2023-09-18T03:17:51;19.90;99.90
24226;DHT22;51462;51.422;5.514;2023-09-18T03:20:17;19.90;99.90
24226;DHT22;51462;51.422;5.514;2023-09-18T03:22:43;19.90;99.90
24226;DHT22;51462;51.422;5.514;2023-09-18T03:25:08;19.90;99.90
24226;DHT22;51462;51.422;5.514;2023-09-18T03:27:35;20.00;99.90
24226;DHT22;51462;51.422;5.514;2023-09-18T03:30:01;20.10;99.90
24226;DHT22;51462;51.422;5.514;2023-09-18T03:32:26;20.10;99.90
24226;DHT22;51462;51.422;5.514;2023-09-18T03:34:53;20.10;99.90
24226;DHT22;51462;51.422;5.514;2023-09-18T03:37:19;20.10;99.90
24226;DHT22;51462;51.422;5.514;2023-09-18T03:39:44;20.10;99.90
24226;DHT22;51462;51.422;5.514;2023-09-18T03:42:10;20.10;99.90
24226;DHT22;51462;51.422;5.514;2023-09-18T03:44:36;20.10;99.90
24226;DHT22;51462;51.422;5.514;2023-09-18T03:47:02;20.10;99.90
24226;DHT22;51462;51.422;5.514;2023-09-18T03:49:29;20.10;99.90
24226;DHT22;51462;51.422;5.514;2023-09-18T03:51:54;20.10;99.90
24226;DHT22;51462;51.422;5.514;2023-09-18T03:54:20;20.10;99.90
24226;DHT22;51462;51.422;5.514;2023-09-18T03:56:46;20.20;99.90
24226;DHT22;51462;51.422;5.514;2023-09-18T03:59:12;20.10;99.90
24226;DHT22;51462;51.422;5.514;2023-09-18T04:01:39;20.10;99.90
24226;DHT22;51462;51.422;5.514;2023-09-18T04:04:05;20.10;99.90
24226;DHT22;51462;51.422;5.514;2023-09-18T04:06:41;20.10;99.90
24226;DHT22;51462;51.422;5.514;2023-09-18T04:09:07;20.00;99.90
24226;DHT22;51462;51.422;5.514;2023-09-18T04:11:32;19.90;99.90
24226;DHT22;51462;51.422;5.514;2023-09-18T04:13:59;19.90;99.90
24226;DHT22;51462;51.422;5.514;2023-09-18T04:16:26;20.00;99.90
24226;DHT22;51462;51.422;5.514;2023-09-18T04:18:53;20.00;99.90
24226;DHT22;51462;51.422;5.514;2023-09-18T04:21:19;20.00;99.90
24226;DHT22;51462;51.422;5.514;2023-09-18T04:23:46;20.00;99.90
24226;DHT22;51462;51.422;5.514;2023-09-18T04:26:12;20.00;99.90
24226;DHT22;51462;51.422;5.514;2023-09-18T04:28:41;20.10;99.90
24226;DHT22;51462;51.422;5.514;2023-09-18T04:31:07;20.00;99.90
24226;DHT22;51462;51.422;5.514;2023-09-18T04:33:33;20.00;99.90
24226;DHT22;51462;51.422;5.514;2023-09-18T04:35:58;20.00;99.90
24226;DHT22;51462;51.422;5.514;2023-09-18T04:38:24;20.00;99.90
24226;DHT22;51462;51.422;5.514;2023-09-18T04:40:57;20.00;99.90
24226;DHT22;51462;51.422;5.514;2023-09-18T04:43:22;20.00;99.90
24226;DHT22;51462;51.422;5.514;2023-09-18T04:45:49;20.00;99.90
24226;DHT22;51462;51.422;5.514;2023-09-18T04:48:14;19.90;99.90
24226;DHT22;51462;51.422;5.514;2023-09-18T04:50:40;19.90;99.90
24226;DHT22;51462;51.422;5.514;2023-09-18T04:53:05;20.00;99.90
24226;DHT22;51462;51.422;5.514;2023-09-18T04:55:31;20.00;99.90
24226;DHT22;51462;51.422;5.514;2023-09-18T04:57:57;19.90;99.90
24226;DHT22;51462;51.422;5.514;2023-09-18T05:00:24;19.90;99.90
24226;DHT22;51462;51.422;5.514;2023-09-18T05:02:51;19.90;99.90
24226;DHT22;51462;51.422;5.514;2023-09-18T05:05:17;19.90;99.90
24226;DHT22;51462;51.422;5.514;2023-09-18T05:07:43;19.90;99.90
24226;DHT22;51462;51.422;5.514;2023-09-18T05:10:09;19.90;99.90
24226;DHT22;51462;51.422;5.514;2023-09-18T05:12:35;19.80;99.90
24226;DHT22;51462;51.422;5.514;2023-09-18T05:15:01;19.80;99.90
24226;DHT22;51462;51.422;5.514;2023-09-18T05:17:43;19.80;99.90
24226;DHT22;51462;51.422;5.514;2023-09-18T05:20:11;19.90;99.90
24226;DHT22;51462;51.422;5.514;2023-09-18T05:22:44;19.80;99.90
24226;DHT22;51462;51.422;5.514;2023-09-18T05:25:11;19.90;99.90
24226;DHT22;51462;51.422;5.514;2023-09-18T05:27:38;19.80;99.90
24226;DHT22;51462;51.422;5.514;2023-09-18T05:32:36;19.80;99.90
24226;DHT22;51462;51.422;5.514;2023-09-18T05:35:02;19.80;99.90
24226;DHT22;51462;51.422;5.514;2023-09-18T05:37:32;19.80;99.90
24226;DHT22;51462;51.422;5.514;2023-09-18T05:39:57;19.80;99.90
24226;DHT22;51462;51.422;5.514;2023-09-18T05:42:23;19.80;99.90
24226;DHT22;51462;51.422;5.514;2023-09-18T05:44:48;19.80;99.90
24226;DHT22;51462;51.422;5.514;2023-09-18T05:47:14;19.80;99.90
24226;DHT22;51462;51.422;5.514;2023-09-18T05:49:39;19.80;99.90
24226;DHT22;51462;51.422;5.514;2023-09-18T05:52:05;19.80;99.90
24226;DHT22;51462;51.422;5.514;2023-09-18T05:54:30;19.80;99.90
24226;DHT22;51462;51.422;5.514;2023-09-18T05:56:56;19.90;99.90
24226;DHT22;51462;51.422;5.514;2023-09-18T05:59:22;19.80;99.90
24226;DHT22;51462;51.422;5.514;2023-09-18T06:01:47;19.90;99.90
24226;DHT22;51462;51.422;5.514;2023-09-18T06:04:14;19.80;99.90
24226;DHT22;51462;51.422;5.514;2023-09-18T06:06:42;19.70;99.90
24226;DHT22;51462;51.422;5.514;2023-09-18T06:09:07;19.80;99.90
24226;DHT22;51462;51.422;5.514;2023-09-18T06:11:33;19.80;99.90
24226;DHT22;51462;51.422;5.514;2023-09-18T06:13:59;19.80;99.90
24226;DHT22;51462;51.422;5.514;2023-09-18T06:16:25;19.70;99.90
24226;DHT22;51462;51.422;5.514;2023-09-18T06:18:50;19.80;99.90
24226;DHT22;51462;51.422;5.514;2023-09-18T06:21:16;19.80;99.90
24226;DHT22;51462;51.422;5.514;2023-09-18T06:23:41;19.80;99.90
24226;DHT22;51462;51.422;5.514;2023-09-18T06:26:07;19.80;99.90
24226;DHT22;51462;51.422;5.514;2023-09-18T06:28:32;19.70;99.90
24226;DHT22;51462;51.422;5.514;2023-09-18T06:30:58;19.70;99.90
24226;DHT22;51462;51.422;5.514;2023-09-18T06:33:23;19.70;99.90
24226;DHT22;51462;51.422;5.514;2023-09-18T06:35:49;19.70;99.90
24226;DHT22;51462;51.422;5.514;2023-09-18T06:38:17;19.70;99.90
24226;DHT22;51462;51.422;5.514;2023-09-18T06:40:42;19.70;99.90
24226;DHT22;51462;51.422;5.514;2023-09-18T06:43:08;19.70;99.90
24226;DHT22;51462;51.422;5.514;2023-09-18T06:45:33;19.80;99.90
24226;DHT22;51462;51.422;5.514;2023-09-18T06:47:59;19.70;99.90
24226;DHT22;51462;51.422;5.514;2023-09-18T06:50:26;19.80;99.90
24226;DHT22;51462;51.422;5.514;2023-09-18T06:52:51;19.80;99.90
24226;DHT22;51462;51.422;5.514;2023-09-18T06:55:17;19.80;99.90
24226;DHT22;51462;51.422;5.514;2023-09-18T06:57:43;19.70;99.90
24226;DHT22;51462;51.422;5.514;2023-09-18T07:00:09;19.80;99.90
24226;DHT22;51462;51.422;5.514;2023-09-18T07:02:34;19.80;99.90
24226;DHT22;51462;51.422;5.514;2023-09-18T07:05:00;19.80;99.90
24226;DHT22;51462;51.422;5.514;2023-09-18T07:07:25;19.80;99.90
24226;DHT22;51462;51.422;5.514;2023-09-18T07:09:52;19.90;99.90
24226;DHT22;51462;51.422;5.514;2023-09-18T07:12:17;19.80;99.90
24226;DHT22;51462;51.422;5.514;2023-09-18T07:14:46;19.90;99.90
24226;DHT22;51462;51.422;5.514;2023-09-18T07:17:12;19.90;99.90
24226;DHT22;51462;51.422;5.514;2023-09-18T07:19:38;19.80;99.90
24226;DHT22;51462;51.422;5.514;2023-09-18T07:22:03;19.70;99.90
24226;DHT22;51462;51.422;5.514;2023-09-18T07:24:29;19.80;99.90
24226;DHT22;51462;51.422;5.514;2023-09-18T07:26:55;19.80;99.90
24226;DHT22;51462;51.422;5.514;2023-09-18T07:29:22;19.70;99.90
24226;DHT22;51462;51.422;5.514;2023-09-18T07:31:51;19.80;99.90
24226;DHT22;51462;51.422;5.514;2023-09-18T07:34:16;19.80;99.90
24226;DHT22;51462;51.422;5.514;2023-09-18T07:36:43;19.80;99.90
24226;DHT22;51462;51.422;5.514;2023-09-18T07:39:10;19.80;99.90
24226;DHT22;51462;51.422;5.514;2023-09-18T07:41:37;19.70;99.90
24226;DHT22;51462;51.422;5.514;2023-09-18T07:44:03;19.70;99.90
24226;DHT22;51462;51.422;5.514;2023-09-18T07:46:28;19.80;99.90
24226;DHT22;51462;51.422;5.514;2023-09-18T07:48:54;19.90;99.90
24226;DHT22;51462;51.422;5.514;2023-09-18T07:51:20;19.80;99.90
24226;DHT22;51462;51.422;5.514;2023-09-18T07:53:46;19.80;99.90
24226;DHT22;51462;51.422;5.514;2023-09-18T07:56:11;19.90;99.90
24226;DHT22;51462;51.422;5.514;2023-09-18T07:58:38;19.90;99.90
24226;DHT22;51462;51.422;5.514;2023-09-18T08:01:05;19.90;99.90
24226;DHT22;51462;51.422;5.514;2023-09-18T08:03:34;19.90;99.90
24226;DHT22;51462;51.422;5.514;2023-09-18T08:06:00;19.80;99.90
24226;DHT22;51462;51.422;5.514;2023-09-18T08:08:25;19.80;99.90
24226;DHT22;51462;51.422;5.514;2023-09-18T08:10:52;19.80;99.90
24226;DHT22;51462;51.422;5.514;2023-09-18T08:13:18;19.80;99.90
24226;DHT22;51462;51.422;5.514;2023-09-18T08:15:45;19.80;99.90
24226;DHT22;51462;51.422;5.514;2023-09-18T08:18:11;19.80;99.90
24226;DHT22;51462;51.422;5.514;2023-09-18T08:20:43;19.80;99.90
24226;DHT22;51462;51.422;5.514;2023-09-18T08:23:12;19.90;99.90
24226;DHT22;51462;51.422;5.514;2023-09-18T08:25:38;19.90;99.90
24226;DHT22;51462;51.422;5.514;2023-09-18T08:28:05;20.00;99.90
24226;DHT22;51462;51.422;5.514;2023-09-18T08:30:32;20.00;99.90
24226;DHT22;51462;51.422;5.514;2023-09-18T08:32:57;20.00;99.90
24226;DHT22;51462;51.422;5.514;2023-09-18T08:35:23;20.00;99.90
24226;DHT22;51462;51.422;5.514;2023-09-18T08:37:53;20.00;99.90
24226;DHT22;51462;51.422;5.514;2023-09-18T08:40:19;20.00;99.90
24226;DHT22;51462;51.422;5.514;2023-09-18T08:42:46;20.00;99.90
24226;DHT22;51462;51.422;5.514;2023-09-18T08:45:19;20.00;99.90
24226;DHT22;51462;51.422;5.514;2023-09-18T08:47:46;20.00;99.90
24226;DHT22;51462;51.422;5.514;2023-09-18T08:50:12;20.00;99.90
24226;DHT22;51462;51.422;5.514;2023-09-18T08:52:39;20.10;99.90
24226;DHT22;51462;51.422;5.514;2023-09-18T08:55:06;20.00;99.90
24226;DHT22;51462;51.422;5.514;2023-09-18T08:57:32;20.00;99.90
24226;DHT22;51462;51.422;5.514;2023-09-18T08:59:58;20.10;99.90
24226;DHT22;51462;51.422;5.514;2023-09-18T09:02:27;20.00;99.90
24226;DHT22;51462;51.422;5.514;2023-09-18T09:04:52;20.00;99.90
24226;DHT22;51462;51.422;5.514;2023-09-18T09:07:18;20.10;99.90
24226;DHT22;51462;51.422;5.514;2023-09-18T09:09:44;20.20;99.90
24226;DHT22;51462;51.422;5.514;2023-09-18T09:12:09;20.30;99.90
24226;DHT22;51462;51.422;5.514;2023-09-18T09:14:35;20.40;99.90
24226;DHT22;51462;51.422;5.514;2023-09-18T09:17:01;20.50;99.90
24226;DHT22;51462;51.422;5.514;2023-09-18T09:19:36;20.50;99.90
24226;DHT22;51462;51.422;5.514;2023-09-18T09:22:04;20.60;99.90
24226;DHT22;51462;51.422;5.514;2023-09-18T09:24:43;20.60;99.90
24226;DHT22;51462;51.422;5.514;2023-09-18T09:27:12;20.60;99.90
24226;DHT22;51462;51.422;5.514;2023-09-18T09:29:40;20.70;99.90
24226;DHT22;51462;51.422;5.514;2023-09-18T09:32:13;20.80;99.90
24226;DHT22;51462;51.422;5.514;2023-09-18T09:34:41;20.80;99.90
24226;DHT22;51462;51.422;5.514;2023-09-18T09:37:07;20.90;99.90
24226;DHT22;51462;51.422;5.514;2023-09-18T09:39:33;20.90;99.90
24226;DHT22;51462;51.422;5.514;2023-09-18T09:42:02;20.80;99.90
24226;DHT22;51462;51.422;5.514;2023-09-18T09:44:32;20.90;99.90
24226;DHT22;51462;51.422;5.514;2023-09-18T09:46:59;21.10;99.90
24226;DHT22;51462;51.422;5.514;2023-09-18T09:49:25;21.00;99.90
24226;DHT22;51462;51.422;5.514;2023-09-18T09:51:53;21.00;99.90
24226;DHT22;51462;51.422;5.514;2023-09-18T09:54:39;21.00;99.90
24226;DHT22;51462;51.422;5.514;2023-09-18T09:57:06;21.10;99.90
24226;DHT22;51462;51.422;5.514;2023-09-18T09:59:32;21.10;99.90
24226;DHT22;51462;51.422;5.514;2023-09-18T10:02:00;21.10;99.90
24226;DHT22;51462;51.422;5.514;2023-09-18T10:04:28;21.10;99.90
24226;DHT22;51462;51.422;5.514;2023-09-18T10:07:06;21.20;99.90
24226;DHT22;51462;51.422;5.514;2023-09-18T10:09:35;21.20;99.90
24226;DHT22;51462;51.422;5.514;2023-09-18T10:12:01;21.10;99.90
24226;DHT22;51462;51.422;5.514;2023-09-18T10:14:31;21.10;99.90
24226;DHT22;51462;51.422;5.514;2023-09-18T10:16:59;21.10;99.90
24226;DHT22;51462;51.422;5.514;2023-09-18T10:24:50;21.10;99.90
24226;DHT22;51462;51.422;5.514;2023-09-18T10:27:18;21.10;99.90
24226;DHT22;51462;51.422;5.514;2023-09-18T10:29:48;21.10;99.90
24226;DHT22;51462;51.422;5.514;2023-09-18T10:32:15;21.10;99.90
24226;DHT22;51462;51.422;5.514;2023-09-18T10:34:41;21.20;99.90
24226;DHT22;51462;51.422;5.514;2023-09-18T10:37:10;21.30;99.90
24226;DHT22;51462;51.422;5.514;2023-09-18T10:39:38;21.30;99.90
24226;DHT22;51462;51.422;5.514;2023-09-18T10:42:08;21.40;99.90
24226;DHT22;51462;51.422;5.514;2023-09-18T10:44:35;21.30;99.90
24226;DHT22;51462;51.422;5.514;2023-09-18T10:47:02;21.40;99.90
24226;DHT22;51462;51.422;5.514;2023-09-18T10:49:31;21.40;99.90
24226;DHT22;51462;51.422;5.514;2023-09-18T10:51:57;21.40;99.90
24226;DHT22;51462;51.422;5.514;2023-09-18T10:54:25;21.40;99.90
24226;DHT22;51462;51.422;5.514;2023-09-18T10:56:52;21.40;99.90
24226;DHT22;51462;51.422;5.514;2023-09-18T10:59:18;21.40;99.90
24226;DHT22;51462;51.422;5.514;2023-09-18T11:01:44;21.40;99.90
24226;DHT22;51462;51.422;5.514;2023-09-18T11:04:10;21.40;99.90
24226;DHT22;51462;51.422;5.514;2023-09-18T11:11:46;21.40;99.90
24226;DHT22;51462;51.422;5.514;2023-09-18T11:14:14;21.50;99.90
24226;DHT22;51462;51.422;5.514;2023-09-18T11:16:42;21.50;99.90
24226;DHT22;51462;51.422;5.514;2023-09-18T11:19:16;21.80;99.90
24226;DHT22;51462;51.422;5.514;2023-09-18T11:21:42;21.80;99.90
24226;DHT22;51462;51.422;5.514;2023-09-18T11:24:20;21.90;99.90
24226;DHT22;51462;51.422;5.514;2023-09-18T11:26:47;22.00;99.90
24226;DHT22;51462;51.422;5.514;2023-09-18T11:29:16;21.90;99.90
24226;DHT22;51462;51.422;5.514;2023-09-18T11:34:29;21.80;99.90
24226;DHT22;51462;51.422;5.514;2023-09-18T11:37:02;22.00;99.90
24226;DHT22;51462;51.422;5.514;2023-09-18T11:39:44;22.20;99.90
24226;DHT22;51462;51.422;5.514;2023-09-18T11:42:17;22.40;99.90
24226;DHT22;51462;51.422;5.514;2023-09-18T11:44:43;22.40;99.90
24226;DHT22;51462;51.422;5.514;2023-09-18T11:47:13;22.70;99.90
24226;DHT22;51462;51.422;5.514;2023-09-18T11:49:50;22.90;99.90
24226;DHT22;51462;51.422;5.514;2023-09-18T11:52:26;23.10;99.90
24226;DHT22;51462;51.422;5.514;2023-09-18T11:54:53;22.80;99.90
24226;DHT22;51462;51.422;5.514;2023-09-18T11:57:20;23.50;99.90
24226;DHT22;51462;51.422;5.514;2023-09-18T11:59:46;23.70;99.90
24226;DHT22;51462;51.422;5.514;2023-09-18T12:02:32;23.60;99.90
24226;DHT22;51462;51.422;5.514;2023-09-18T12:05:17;23.70;99.90
24226;DHT22;51462;51.422;5.514;2023-09-18T12:07:45;23.80;99.90
24226;DHT22;51462;51.422;5.514;2023-09-18T12:10:15;23.80;99.90
24226;DHT22;51462;51.422;5.514;2023-09-18T12:12:43;23.50;99.90
24226;DHT22;51462;51.422;5.514;2023-09-18T12:15:11;23.60;99.90
24226;DHT22;51462;51.422;5.514;2023-09-18T12:17:37;23.80;99.90
24226;DHT22;51462;51.422;5.514;2023-09-18T12:20:03;23.80;99.90
24226;DHT22;51462;51.422;5.514;2023-09-18T12:22:30;23.30;99.90
24226;DHT22;51462;51.422;5.514;2023-09-18T12:25:13;23.20;99.90
24226;DHT22;51462;51.422;5.514;2023-09-18T12:27:42;23.10;99.90
24226;DHT22;51462;51.422;5.514;2023-09-18T12:30:08;23.30;99.90
24226;DHT22;51462;51.422;5.514;2023-09-18T12:32:38;23.20;99.90
24226;DHT22;51462;51.422;5.514;2023-09-18T12:35:06;23.10;99.90
24226;DHT22;51462;51.422;5.514;2023-09-18T12:37:38;23.20;99.90
24226;DHT22;51462;51.422;5.514;2023-09-18T12:40:05;23.50;99.90
24226;DHT22;51462;51.422;5.514;2023-09-18T12:42:36;23.80;99.90
24226;DHT22;51462;51.422;5.514;2023-09-18T12:45:06;23.40;99.90
24226;DHT22;51462;51.422;5.514;2023-09-18T12:47:33;23.50;99.90
24226;DHT22;51462;51.422;5.514;2023-09-18T12:50:03;23.40;99.90
24226;DHT22;51462;51.422;5.514;2023-09-18T12:52:29;23.30;99.90
24226;DHT22;51462;51.422;5.514;2023-09-18T12:54:54;23.20;99.90
24226;DHT22;51462;51.422;5.514;2023-09-18T12:57:21;23.20;99.90
24226;DHT22;51462;51.422;5.514;2023-09-18T12:59:47;23.20;99.90
24226;DHT22;51462;51.422;5.514;2023-09-18T13:02:17;23.10;99.90
24226;DHT22;51462;51.422;5.514;2023-09-18T13:04:55;23.10;99.90
24226;DHT22;51462;51.422;5.514;2023-09-18T13:07:23;23.10;99.90
24226;DHT22;51462;51.422;5.514;2023-09-18T13:09:59;23.00;99.90
24226;DHT22;51462;51.422;5.514;2023-09-18T13:12:38;23.00;99.90
24226;DHT22;51462;51.422;5.514;2023-09-18T13:15:05;23.20;99.90
24226;DHT22;51462;51.422;5.514;2023-09-18T13:17:41;23.30;99.90
24226;DHT22;51462;51.422;5.514;2023-09-18T13:20:25;23.40;99.90
24226;DHT22;51462;51.422;5.514;2023-09-18T13:22:55;23.70;99.90
24226;DHT22;51462;51.422;5.514;2023-09-18T13:25:29;23.50;99.90
24226;DHT22;51462;51.422;5.514;2023-09-18T13:27:55;23.80;99.90
24226;DHT22;51462;51.422;5.514;2023-09-18T13:30:21;24.00;99.90
24226;DHT22;51462;51.422;5.514;2023-09-18T13:32:49;24.40;99.90
24226;DHT22;51462;51.422;5.514;2023-09-18T13:35:18;24.60;99.90
24226;DHT22;51462;51.422;5.514;2023-09-18T13:37:45;24.30;99.90
24226;DHT22;51462;51.422;5.514;2023-09-18T13:40:11;24.60;99.90
24226;DHT22;51462;51.422;5.514;2023-09-18T13:42:38;25.00;99.90
24226;DHT22;51462;51.422;5.514;2023-09-18T13:45:07;25.10;99.90
24226;DHT22;51462;51.422;5.514;2023-09-18T13:47:34;25.70;99.90
24226;DHT22;51462;51.422;5.514;2023-09-18T13:50:01;25.70;99.90
24226;DHT22;51462;51.422;5.514;2023-09-18T13:52:28;25.50;99.90
24226;DHT22;51462;51.422;5.514;2023-09-18T13:54:54;25.60;99.90
24226;DHT22;51462;51.422;5.514;2023-09-18T13:57:20;25.70;99.90
24226;DHT22;51462;51.422;5.514;2023-09-18T13:59:46;26.50;99.90
24226;DHT22;51462;51.422;5.514;2023-09-18T14:02:14;26.90;99.90
24226;DHT22;51462;51.422;5.514;2023-09-18T14:04:40;26.50;99.90
24226;DHT22;51462;51.422;5.514;2023-09-18T14:07:06;26.50;99.90
24226;DHT22;51462;51.422;5.514;2023-09-18T14:09:33;26.80;99.90
24226;DHT22;51462;51.422;5.514;2023-09-18T14:11:59;26.90;99.90
24226;DHT22;51462;51.422;5.514;2023-09-18T14:14:25;26.80;99.90
24226;DHT22;51462;51.422;5.514;2023-09-18T14:16:51;27.10;99.90
24226;DHT22;51462;51.422;5.514;2023-09-18T14:19:17;27.30;99.90
24226;DHT22;51462;51.422;5.514;2023-09-18T14:21:42;26.50;99.90
24226;DHT22;51462;51.422;5.514;2023-09-18T14:24:08;27.30;99.90
24226;DHT22;51462;51.422;5.514;2023-09-18T14:26:35;28.00;99.90
24226;DHT22;51462;51.422;5.514;2023-09-18T14:29:09;26.90;99.90
24226;DHT22;51462;51.422;5.514;2023-09-18T14:31:38;25.90;99.90
24226;DHT22;51462;51.422;5.514;2023-09-18T14:34:03;26.80;99.90
24226;DHT22;51462;51.422;5.514;2023-09-18T14:36:32;27.80;99.90
24226;DHT22;51462;51.422;5.514;2023-09-18T14:39:01;26.80;99.90
24226;DHT22;51462;51.422;5.514;2023-09-18T14:41:27;27.00;99.90
24226;DHT22;51462;51.422;5.514;2023-09-18T14:43:53;26.90;99.90
24226;DHT22;51462;51.422;5.514;2023-09-18T14:46:19;28.40;99.90
24226;DHT22;51462;51.422;5.514;2023-09-18T14:48:46;28.40;99.90
24226;DHT22;51462;51.422;5.514;2023-09-18T14:51:11;27.60;99.90
24226;DHT22;51462;51.422;5.514;2023-09-18T14:53:37;26.00;99.90
24226;DHT22;51462;51.422;5.514;2023-09-18T14:56:03;25.20;99.90
24226;DHT22;51462;51.422;5.514;2023-09-18T14:58:29;25.30;99.90
24226;DHT22;51462;51.422;5.514;2023-09-18T15:00:56;25.00;99.90
24226;DHT22;51462;51.422;5.514;2023-09-18T15:03:22;25.00;99.90
24226;DHT22;51462;51.422;5.514;2023-09-18T15:05:50;24.70;99.90
24226;DHT22;51462;51.422;5.514;2023-09-18T15:08:16;24.80;99.90
24226;DHT22;51462;51.422;5.514;2023-09-18T15:10:43;24.50;99.90
24226;DHT22;51462;51.422;5.514;2023-09-18T15:13:09;24.60;99.90
24226;DHT22;51462;51.422;5.514;2023-09-18T15:15:34;24.60;99.90
24226;DHT22;51462;51.422;5.514;2023-09-18T15:18:01;24.60;99.90
24226;DHT22;51462;51.422;5.514;2023-09-18T15:20:27;24.30;99.90
24226;DHT22;51462;51.422;5.514;2023-09-18T15:22:52;24.30;99.90
24226;DHT22;51462;51.422;5.514;2023-09-18T15:25:18;24.30;99.90
24226;DHT22;51462;51.422;5.514;2023-09-18T15:27:45;24.40;99.90
24226;DHT22;51462;51.422;5.514;2023-09-18T15:30:10;24.20;99.90
24226;DHT22;51462;51.422;5.514;2023-09-18T15:32:53;24.30;99.90
24226;DHT22;51462;51.422;5.514;2023-09-18T15:35:23;24.10;99.90
24226;DHT22;51462;51.422;5.514;2023-09-18T15:37:49;24.00;99.90
24226;DHT22;51462;51.422;5.514;2023-09-18T15:40:16;23.80;99.90
24226;DHT22;51462;51.422;5.514;2023-09-18T15:42:45;23.80;99.90
24226;DHT22;51462;51.422;5.514;2023-09-18T15:45:11;23.80;99.90
24226;DHT22;51462;51.422;5.514;2023-09-18T15:47:37;23.20;99.90
24226;DHT22;51462;51.422;5.514;2023-09-18T15:50:05;21.70;99.90